createdAt,value
2022-12-31T00:00:36.437Z,10.84
2022-12-31T00:01:37.899Z,10.78
2022-12-31T00:02:39.858Z,10.80
2022-12-31T00:03:42.220Z,10.79
2022-12-31T00:04:43.745Z,10.83
2022-12-31T00:05:45.249Z,10.87
2022-12-31T00:06:47.354Z,10.84
2022-12-31T00:07:48.764Z,10.83
2022-12-31T00:08:51.766Z,10.76
2022-12-31T00:09:53.137Z,10.77
2022-12-31T00:10:54.587Z,10.80
2022-12-31T00:11:56.338Z,10.76
2022-12-31T00:12:57.811Z,10.80
2022-12-31T00:13:59.627Z,10.89
2022-12-31T00:15:01.093Z,10.94
2022-12-31T00:16:12.663Z,10.88
2022-12-31T00:17:15.843Z,10.79
2022-12-31T00:18:17.269Z,10.82
2022-12-31T00:19:18.708Z,10.80
2022-12-31T00:20:20.170Z,10.81
2022-12-31T00:21:22.704Z,10.77
2022-12-31T00:22:24.704Z,10.79
2022-12-31T00:23:26.144Z,10.80
2022-12-31T00:24:31.117Z,10.86
2022-12-31T00:25:35.068Z,10.86
2022-12-31T00:26:36.858Z,10.84
2022-12-31T00:27:38.555Z,10.88
2022-12-31T00:28:41.841Z,10.89
2022-12-31T00:29:43.609Z,10.92
2022-12-31T00:30:45.147Z,10.94
2022-12-31T00:31:46.667Z,11.00
2022-12-31T00:32:48.138Z,11.06
2022-12-31T00:33:50.222Z,11.11
2022-12-31T00:34:51.668Z,11.11
2022-12-31T00:35:53.119Z,10.91
2022-12-31T00:36:54.933Z,10.87
2022-12-31T00:37:56.427Z,10.86
2022-12-31T00:38:59.608Z,10.90
2022-12-31T00:40:01.055Z,10.97
2022-12-31T00:41:02.563Z,10.99
2022-12-31T00:42:04.457Z,10.99
2022-12-31T00:43:05.986Z,11.06
2022-12-31T00:44:07.468Z,11.17
2022-12-31T00:45:09.319Z,11.21
2022-12-31T00:46:11.730Z,11.16
2022-12-31T00:47:13.587Z,11.13
2022-12-31T00:48:15.030Z,11.19
2022-12-31T00:49:16.776Z,11.22
2022-12-31T00:50:18.422Z,11.15
2022-12-31T00:51:22.976Z,11.10
2022-12-31T00:52:24.802Z,11.19
2022-12-31T00:53:26.876Z,11.24
2022-12-31T00:54:28.315Z,11.25
2022-12-31T00:55:30.912Z,11.18
2022-12-31T00:56:33.238Z,11.13
2022-12-31T00:57:34.676Z,11.18
2022-12-31T00:58:36.409Z,11.13
2022-12-31T00:59:37.807Z,11.13
2022-12-31T01:00:39.247Z,11.18
2022-12-31T01:01:42.358Z,11.24
2022-12-31T01:02:43.971Z,11.19
2022-12-31T01:03:47.603Z,11.25
2022-12-31T01:04:49.129Z,11.25
2022-12-31T01:05:50.903Z,11.16
2022-12-31T01:06:52.602Z,11.15
2022-12-31T01:07:54.066Z,11.11
2022-12-31T01:08:55.854Z,11.10
2022-12-31T01:09:57.279Z,11.09
2022-12-31T01:11:18.284Z,11.15
2022-12-31T01:12:20.002Z,11.23
2022-12-31T01:13:21.777Z,11.26
2022-12-31T01:14:23.283Z,11.24
2022-12-31T01:15:24.774Z,11.30
2022-12-31T01:16:34.657Z,11.35
2022-12-31T01:17:36.085Z,11.38
2022-12-31T01:18:37.682Z,11.42
2022-12-31T01:19:39.124Z,11.46
2022-12-31T01:20:43.505Z,11.42
2022-12-31T01:21:46.900Z,11.41
2022-12-31T01:22:48.337Z,11.42
2022-12-31T01:23:50.132Z,11.52
2022-12-31T01:24:51.538Z,11.55
2022-12-31T01:25:52.965Z,11.53
2022-12-31T01:26:57.851Z,11.50
2022-12-31T01:27:59.426Z,11.61
2022-12-31T01:29:01.074Z,11.53
2022-12-31T01:30:02.564Z,11.45
2022-12-31T01:31:10.030Z,11.44
2022-12-31T01:32:11.483Z,11.49
2022-12-31T01:33:12.900Z,11.48
2022-12-31T01:34:14.394Z,11.52
2022-12-31T01:35:15.866Z,11.46
2022-12-31T01:36:25.919Z,11.56
2022-12-31T01:37:28.220Z,11.59
2022-12-31T01:38:29.766Z,11.62
2022-12-31T01:39:31.270Z,11.63
2022-12-31T01:40:37.736Z,11.60
2022-12-31T01:41:42.219Z,11.65
2022-12-31T01:42:43.637Z,11.71
2022-12-31T01:43:49.603Z,11.72
2022-12-31T01:44:55.785Z,11.76
2022-12-31T01:45:57.330Z,11.75
2022-12-31T01:47:02.581Z,11.74
2022-12-31T01:48:04.096Z,11.78
2022-12-31T01:49:35.250Z,11.78
2022-12-31T01:50:39.784Z,11.79
2022-12-31T01:51:43.762Z,11.76
2022-12-31T01:52:49.876Z,11.78
2022-12-31T01:53:51.921Z,11.78
2022-12-31T01:55:06.196Z,11.75
2022-12-31T01:56:08.131Z,11.77
2022-12-31T01:57:10.971Z,11.71
2022-12-31T01:58:20.552Z,11.67
2022-12-31T01:59:24.523Z,11.67
2022-12-31T02:00:26.378Z,11.71
2022-12-31T02:01:32.072Z,11.75
2022-12-31T02:02:34.147Z,11.79
2022-12-31T02:03:36.840Z,11.84
2022-12-31T02:04:38.404Z,11.86
2022-12-31T02:05:49.331Z,11.88
2022-12-31T02:06:56.440Z,11.88
2022-12-31T02:07:59.010Z,11.76
2022-12-31T02:09:00.921Z,11.75
2022-12-31T02:10:02.550Z,11.78
2022-12-31T02:11:28.830Z,11.76
2022-12-31T02:12:30.256Z,11.69
2022-12-31T02:13:31.718Z,11.65
2022-12-31T02:14:37.627Z,11.61
2022-12-31T02:15:51.154Z,11.65
2022-12-31T02:17:32.785Z,11.62
2022-12-31T02:18:43.720Z,11.66
2022-12-31T02:20:29.256Z,11.71
2022-12-31T02:21:51.350Z,11.73
2022-12-31T02:23:22.853Z,11.74
2022-12-31T02:25:02.226Z,11.76
2022-12-31T02:26:27.225Z,11.75
2022-12-31T02:27:31.889Z,11.79
2022-12-31T02:29:01.004Z,11.85
2022-12-31T02:30:10.977Z,11.90
2022-12-31T02:31:17.485Z,11.90
2022-12-31T02:32:29.446Z,11.94
2022-12-31T02:33:36.148Z,11.88
2022-12-31T02:34:50.715Z,11.87
2022-12-31T02:35:58.423Z,11.86
2022-12-31T02:37:04.830Z,11.89
2022-12-31T02:38:19.531Z,11.99
2022-12-31T02:39:21.559Z,11.98
2022-12-31T02:40:23.595Z,11.92
2022-12-31T02:41:43.625Z,11.81
2022-12-31T02:42:50.038Z,11.74
2022-12-31T02:43:54.807Z,11.82
2022-12-31T02:44:56.272Z,11.83
2022-12-31T02:46:22.661Z,11.72
2022-12-31T02:47:44.673Z,11.78
2022-12-31T02:49:00.650Z,11.84
2022-12-31T02:50:35.966Z,11.86
2022-12-31T02:51:44.555Z,11.87
2022-12-31T02:52:55.293Z,11.87
2022-12-31T02:54:02.889Z,11.80
2022-12-31T02:55:07.060Z,11.85
2022-12-31T02:56:35.953Z,11.92
2022-12-31T02:57:53.465Z,11.81
2022-12-31T02:59:23.214Z,11.86
2022-12-31T03:00:43.683Z,11.76
2022-12-31T03:02:08.669Z,11.81
2022-12-31T03:03:11.901Z,11.79
2022-12-31T03:04:32.482Z,11.79
2022-12-31T03:05:38.837Z,11.73
2022-12-31T03:06:42.066Z,11.68
2022-12-31T03:07:45.618Z,11.68
2022-12-31T03:09:05.864Z,11.74
2022-12-31T03:10:08.228Z,11.73
2022-12-31T03:11:29.635Z,11.77
2022-12-31T03:12:47.552Z,11.74
2022-12-31T03:13:49.085Z,11.73
2022-12-31T03:14:50.902Z,11.65
2022-12-31T03:15:52.383Z,11.72
2022-12-31T03:16:53.833Z,11.71
2022-12-31T03:17:57.170Z,11.68
2022-12-31T03:19:36.773Z,11.66
2022-12-31T03:21:01.646Z,11.70
2022-12-31T03:22:22.409Z,11.70
2022-12-31T03:23:42.672Z,11.73
2022-12-31T03:25:03.020Z,11.76
2022-12-31T03:26:12.084Z,11.71
2022-12-31T03:27:13.429Z,11.72
2022-12-31T03:28:18.671Z,11.69
2022-12-31T03:29:20.304Z,11.72
2022-12-31T03:30:22.907Z,11.73
2022-12-31T03:31:24.338Z,11.76
2022-12-31T03:32:26.136Z,11.79
2022-12-31T03:33:32.249Z,11.82
2022-12-31T03:34:33.658Z,11.87
2022-12-31T03:35:38.817Z,11.89
2022-12-31T03:36:43.688Z,11.90
2022-12-31T03:37:45.330Z,11.81
2022-12-31T03:38:51.183Z,11.74
2022-12-31T03:39:54.183Z,11.77
2022-12-31T03:40:56.051Z,11.69
2022-12-31T03:41:57.462Z,11.68
2022-12-31T03:42:58.915Z,11.73
2022-12-31T03:44:00.352Z,11.79
2022-12-31T03:45:02.170Z,11.83
2022-12-31T03:46:03.629Z,11.76
2022-12-31T03:47:05.374Z,11.76
2022-12-31T03:48:09.488Z,11.71
2022-12-31T03:49:10.917Z,11.68
2022-12-31T03:50:14.579Z,11.65
2022-12-31T03:51:16.791Z,11.63
2022-12-31T03:52:18.529Z,11.67
2022-12-31T03:53:20.524Z,11.70
2022-12-31T03:54:21.953Z,11.70
2022-12-31T03:55:23.870Z,11.73
2022-12-31T03:56:25.292Z,11.77
2022-12-31T03:57:26.724Z,11.75
2022-12-31T03:58:28.232Z,11.78
2022-12-31T03:59:29.669Z,11.74
2022-12-31T04:00:31.116Z,11.72
2022-12-31T04:01:32.653Z,11.75
2022-12-31T04:02:34.809Z,11.83
2022-12-31T04:03:36.364Z,11.77
2022-12-31T04:04:37.803Z,11.74
2022-12-31T04:05:39.340Z,11.74
2022-12-31T04:06:40.829Z,11.75
2022-12-31T04:07:43.039Z,11.77
2022-12-31T04:08:44.501Z,11.81
2022-12-31T04:09:45.942Z,11.88
2022-12-31T04:10:47.791Z,11.90
2022-12-31T04:11:49.192Z,11.92
2022-12-31T04:12:51.252Z,11.92
2022-12-31T04:13:53.041Z,11.99
2022-12-31T04:14:54.549Z,12.03
2022-12-31T04:15:55.946Z,11.97
2022-12-31T04:16:57.366Z,11.93
2022-12-31T04:17:58.837Z,11.93
2022-12-31T04:19:00.551Z,12.00
2022-12-31T04:20:02.776Z,12.03
2022-12-31T04:21:05.633Z,12.05
2022-12-31T04:22:07.072Z,12.04
2022-12-31T04:23:08.846Z,12.06
2022-12-31T04:24:10.543Z,11.98
2022-12-31T04:25:12.940Z,12.01
2022-12-31T04:26:14.396Z,12.07
2022-12-31T04:27:15.832Z,12.09
2022-12-31T04:28:17.623Z,12.04
2022-12-31T04:29:19.136Z,12.03
2022-12-31T04:30:20.597Z,12.07
2022-12-31T04:31:22.360Z,12.08
2022-12-31T04:32:23.858Z,12.11
2022-12-31T04:33:25.704Z,12.20
2022-12-31T04:34:27.246Z,12.12
2022-12-31T04:35:28.644Z,12.10
2022-12-31T04:36:30.103Z,12.08
2022-12-31T04:37:31.925Z,12.15
2022-12-31T04:38:33.945Z,12.11
2022-12-31T04:39:35.703Z,12.11
2022-12-31T04:40:57.121Z,12.13
2022-12-31T04:41:58.633Z,12.08
2022-12-31T04:43:00.396Z,12.10
2022-12-31T04:44:02.293Z,12.14
2022-12-31T04:45:04.792Z,12.13
2022-12-31T04:46:07.142Z,12.14
2022-12-31T04:47:08.627Z,12.15
2022-12-31T04:48:10.345Z,12.25
2022-12-31T04:49:11.830Z,12.30
2022-12-31T04:50:13.390Z,12.23
2022-12-31T04:51:15.089Z,12.19
2022-12-31T04:52:16.824Z,12.25
2022-12-31T04:53:18.199Z,12.25
2022-12-31T04:54:19.669Z,12.26
2022-12-31T04:55:21.098Z,12.33
2022-12-31T04:56:22.926Z,12.35
2022-12-31T04:57:24.808Z,12.39
2022-12-31T04:58:26.373Z,12.34
2022-12-31T04:59:27.786Z,12.46
2022-12-31T05:00:29.177Z,12.43
2022-12-31T05:01:30.717Z,12.36
2022-12-31T05:02:32.597Z,12.42
2022-12-31T05:03:34.852Z,12.49
2022-12-31T05:04:36.298Z,12.45
2022-12-31T05:05:42.813Z,12.37
2022-12-31T05:06:44.398Z,12.39
2022-12-31T05:07:45.837Z,12.47
2022-12-31T05:08:48.339Z,12.45
2022-12-31T05:09:49.756Z,12.48
2022-12-31T05:10:51.184Z,12.48
2022-12-31T05:11:52.965Z,12.48
2022-12-31T05:12:54.489Z,12.47
2022-12-31T05:13:55.929Z,12.44
2022-12-31T05:14:57.355Z,12.42
2022-12-31T05:15:58.771Z,12.41
2022-12-31T05:17:01.433Z,12.45
2022-12-31T05:18:03.738Z,12.42
2022-12-31T05:19:06.374Z,12.40
2022-12-31T05:20:08.296Z,12.45
2022-12-31T05:21:15.549Z,12.47
2022-12-31T05:22:29.264Z,12.44
2022-12-31T05:23:30.682Z,12.39
2022-12-31T05:24:32.265Z,12.44
2022-12-31T05:25:34.343Z,12.47
2022-12-31T05:26:35.760Z,12.50
2022-12-31T05:27:40.448Z,12.55
2022-12-31T05:28:41.849Z,12.60
2022-12-31T05:29:43.256Z,12.57
2022-12-31T05:30:47.477Z,12.60
2022-12-31T05:31:49.019Z,12.65
2022-12-31T05:32:51.063Z,12.63
2022-12-31T05:33:53.019Z,12.64
2022-12-31T05:34:54.435Z,12.58
2022-12-31T05:35:58.259Z,12.62
2022-12-31T05:36:59.689Z,12.60
2022-12-31T05:38:01.905Z,12.56
2022-12-31T05:39:03.345Z,12.62
2022-12-31T05:40:06.417Z,12.67
2022-12-31T05:41:08.199Z,12.69
2022-12-31T05:42:09.981Z,12.65
2022-12-31T05:43:11.598Z,12.71
2022-12-31T05:44:13.135Z,12.74
2022-12-31T05:45:15.417Z,12.76
2022-12-31T05:46:16.839Z,12.79
2022-12-31T05:47:18.746Z,12.75
2022-12-31T05:48:20.220Z,12.74
2022-12-31T05:49:21.647Z,12.70
2022-12-31T05:50:23.122Z,12.69
2022-12-31T05:51:24.572Z,12.67
2022-12-31T05:52:26.345Z,12.65
2022-12-31T05:53:27.897Z,12.65
2022-12-31T05:54:29.382Z,12.67
2022-12-31T05:55:30.861Z,12.68
2022-12-31T05:56:32.542Z,12.72
2022-12-31T05:57:34.057Z,12.79
2022-12-31T05:58:35.530Z,12.73
2022-12-31T05:59:36.977Z,12.64
2022-12-31T06:00:38.408Z,12.59
2022-12-31T06:01:39.872Z,12.52
2022-12-31T06:02:41.629Z,12.55
2022-12-31T06:03:43.279Z,12.46
2022-12-31T06:04:44.732Z,12.48
2022-12-31T06:05:46.219Z,12.51
2022-12-31T06:06:47.803Z,12.48
2022-12-31T06:07:49.235Z,12.45
2022-12-31T06:08:51.396Z,12.49
2022-12-31T06:09:52.758Z,12.51
2022-12-31T06:10:54.159Z,12.54
2022-12-31T06:11:55.900Z,12.48
2022-12-31T06:12:57.327Z,12.44
2022-12-31T06:13:58.736Z,12.39
2022-12-31T06:15:00.535Z,12.35
2022-12-31T06:16:07.421Z,12.34
2022-12-31T06:17:08.897Z,12.35
2022-12-31T06:18:10.358Z,12.32
2022-12-31T06:19:11.763Z,12.30
2022-12-31T06:20:13.558Z,12.34
2022-12-31T06:21:16.164Z,12.34
2022-12-31T06:22:17.622Z,12.33
2022-12-31T06:23:19.029Z,12.38
2022-12-31T06:24:20.477Z,12.39
2022-12-31T06:25:21.913Z,12.37
2022-12-31T06:26:23.657Z,12.34
2022-12-31T06:27:25.095Z,12.33
2022-12-31T06:28:26.533Z,12.32
2022-12-31T06:29:27.988Z,12.31
2022-12-31T06:30:29.466Z,12.35
2022-12-31T06:31:31.316Z,12.36
2022-12-31T06:32:32.746Z,12.42
2022-12-31T06:33:34.944Z,12.48
2022-12-31T06:34:36.363Z,12.49
2022-12-31T06:35:37.790Z,12.44
2022-12-31T06:36:39.624Z,12.40
2022-12-31T06:37:41.140Z,12.38
2022-12-31T06:38:43.883Z,12.38
2022-12-31T06:39:45.324Z,12.34
2022-12-31T06:40:46.767Z,12.34
2022-12-31T06:41:48.511Z,12.39
2022-12-31T06:42:54.624Z,12.43
2022-12-31T06:43:59.329Z,12.41
2022-12-31T06:45:00.810Z,12.36
2022-12-31T06:46:03.374Z,12.37
2022-12-31T06:47:05.190Z,12.40
2022-12-31T06:48:07.291Z,12.44
2022-12-31T06:49:08.703Z,12.39
2022-12-31T06:50:10.189Z,12.36
2022-12-31T06:51:17.499Z,12.35
2022-12-31T06:52:19.447Z,12.36
2022-12-31T06:53:20.998Z,12.38
2022-12-31T06:54:22.448Z,12.36
2022-12-31T06:55:24.411Z,12.37
2022-12-31T06:56:34.039Z,12.40
2022-12-31T06:57:36.457Z,12.44
2022-12-31T06:58:38.228Z,12.40
2022-12-31T06:59:40.136Z,12.40
2022-12-31T07:00:50.315Z,12.40
2022-12-31T07:02:22.754Z,12.40
2022-12-31T07:03:30.574Z,12.32
2022-12-31T07:04:56.632Z,12.32
2022-12-31T07:06:24.319Z,12.33
2022-12-31T07:07:46.994Z,12.34
2022-12-31T07:09:08.198Z,12.34
2022-12-31T07:10:29.642Z,12.36
2022-12-31T07:12:00.972Z,12.40
2022-12-31T07:13:44.787Z,12.34
2022-12-31T07:15:12.326Z,12.38
2022-12-31T07:16:25.473Z,12.44
2022-12-31T07:18:02.260Z,12.44
2022-12-31T07:19:06.722Z,12.42
2022-12-31T07:20:14.429Z,12.36
2022-12-31T07:21:19.283Z,12.36
2022-12-31T07:22:21.131Z,12.40
2022-12-31T07:23:23.275Z,12.42
2022-12-31T07:24:25.210Z,12.40
2022-12-31T07:25:27.019Z,12.40
2022-12-31T07:26:43.573Z,12.36
2022-12-31T07:28:18.402Z,12.33
2022-12-31T07:29:32.062Z,12.32
2022-12-31T07:30:42.802Z,12.40
2022-12-31T07:32:03.865Z,12.39
2022-12-31T07:33:39.038Z,12.41
2022-12-31T07:34:52.482Z,12.45
2022-12-31T07:36:12.867Z,12.47
2022-12-31T07:37:34.671Z,12.48
2022-12-31T07:39:12.627Z,12.46
2022-12-31T07:40:49.879Z,12.47
2022-12-31T07:42:03.296Z,12.50
2022-12-31T07:43:16.460Z,12.50
2022-12-31T07:44:31.657Z,12.60
2022-12-31T07:45:51.781Z,12.61
2022-12-31T07:46:58.998Z,12.63
2022-12-31T07:48:02.991Z,12.66
2022-12-31T07:49:06.292Z,12.63
2022-12-31T07:50:15.641Z,12.64
2022-12-31T07:51:17.567Z,12.65
2022-12-31T07:52:19.861Z,12.64
2022-12-31T07:53:22.919Z,12.64
2022-12-31T07:54:24.462Z,12.62
2022-12-31T07:55:25.915Z,12.63
2022-12-31T07:56:27.442Z,12.64
2022-12-31T07:57:38.516Z,12.67
2022-12-31T07:58:40.254Z,12.67
2022-12-31T08:00:00.854Z,12.69
2022-12-31T08:01:03.726Z,12.71
2022-12-31T08:02:24.777Z,12.72
2022-12-31T08:03:55.372Z,12.78
2022-12-31T08:05:16.872Z,12.81
2022-12-31T08:06:48.706Z,12.90
2022-12-31T08:08:25.486Z,12.87
2022-12-31T08:09:51.885Z,12.92
2022-12-31T08:11:04.807Z,12.94
2022-12-31T08:12:07.971Z,13.06
2022-12-31T08:13:12.249Z,13.16
2022-12-31T08:14:14.833Z,13.16
2022-12-31T08:15:19.134Z,13.18
2022-12-31T08:16:21.760Z,13.12
2022-12-31T08:17:23.643Z,13.18
2022-12-31T08:18:25.884Z,13.24
2022-12-31T08:19:30.658Z,13.21
2022-12-31T08:20:34.242Z,13.23
2022-12-31T08:21:53.619Z,13.25
2022-12-31T08:23:22.030Z,13.30
2022-12-31T08:24:43.011Z,13.36
2022-12-31T08:26:06.487Z,13.42
2022-12-31T08:27:12.247Z,13.45
2022-12-31T08:28:49.281Z,13.53
2022-12-31T08:30:01.680Z,13.50
2022-12-31T08:31:14.839Z,13.49
2022-12-31T08:32:26.708Z,13.48
2022-12-31T08:33:43.624Z,13.50
2022-12-31T08:34:56.204Z,13.54
2022-12-31T08:36:09.857Z,13.49
2022-12-31T08:37:33.523Z,13.49
2022-12-31T08:38:37.917Z,13.49
2022-12-31T08:39:59.906Z,13.49
2022-12-31T08:41:22.891Z,13.50
2022-12-31T08:42:37.249Z,13.56
2022-12-31T08:44:09.597Z,13.57
2022-12-31T08:45:28.664Z,13.54
2022-12-31T08:46:48.446Z,13.51
2022-12-31T08:48:12.087Z,13.47
2022-12-31T08:49:14.836Z,13.47
2022-12-31T08:50:19.105Z,13.47
2022-12-31T08:51:25.740Z,13.45
2022-12-31T08:52:27.396Z,13.48
2022-12-31T08:53:29.540Z,13.53
2022-12-31T08:54:31.280Z,13.51
2022-12-31T08:55:33.056Z,13.53
2022-12-31T08:57:00.635Z,13.60
2022-12-31T08:58:43.641Z,13.60
2022-12-31T09:00:02.425Z,13.52
2022-12-31T09:01:07.358Z,13.55
2022-12-31T09:02:27.112Z,13.63
2022-12-31T09:03:47.224Z,13.63
2022-12-31T09:05:13.244Z,13.69
2022-12-31T09:06:22.216Z,13.68
2022-12-31T09:07:39.245Z,13.67
2022-12-31T09:08:51.308Z,13.71
2022-12-31T09:10:22.902Z,13.68
2022-12-31T09:11:39.325Z,13.67
2022-12-31T09:13:15.628Z,13.69
2022-12-31T09:14:32.110Z,13.74
2022-12-31T09:15:41.274Z,13.81
2022-12-31T09:16:42.677Z,13.87
2022-12-31T09:17:47.489Z,13.91
2022-12-31T09:18:48.957Z,13.94
2022-12-31T09:19:50.751Z,14.00
2022-12-31T09:20:52.420Z,14.02
2022-12-31T09:21:54.789Z,14.06
2022-12-31T09:22:57.263Z,14.05
2022-12-31T09:24:03.028Z,14.00
2022-12-31T09:25:12.312Z,14.00
2022-12-31T09:26:32.146Z,13.91
2022-12-31T09:27:45.788Z,13.93
2022-12-31T09:29:05.757Z,13.92
2022-12-31T09:30:12.305Z,13.96
2022-12-31T09:31:21.946Z,14.01
2022-12-31T09:32:27.572Z,14.01
2022-12-31T09:33:52.360Z,13.92
2022-12-31T09:35:07.342Z,13.94
2022-12-31T09:36:16.949Z,13.92
2022-12-31T09:37:29.341Z,13.92
2022-12-31T09:38:52.719Z,13.93
2022-12-31T09:39:57.548Z,13.93
2022-12-31T09:41:15.800Z,13.97
2022-12-31T09:42:41.673Z,13.94
2022-12-31T09:44:02.421Z,13.98
2022-12-31T09:45:39.086Z,13.99
2022-12-31T09:47:18.391Z,14.06
2022-12-31T09:49:06.656Z,14.15
2022-12-31T09:50:30.026Z,14.23
2022-12-31T09:51:52.825Z,14.26
2022-12-31T09:53:13.399Z,14.31
2022-12-31T09:54:54.314Z,14.35
2022-12-31T09:56:17.711Z,14.42
2022-12-31T09:57:40.578Z,14.44
2022-12-31T09:58:54.990Z,14.35
2022-12-31T10:00:05.288Z,14.38
2022-12-31T10:01:44.015Z,14.43
2022-12-31T10:03:10.418Z,14.50
2022-12-31T10:04:35.564Z,14.43
2022-12-31T10:05:55.570Z,14.52
2022-12-31T10:07:09.191Z,14.48
2022-12-31T10:08:41.854Z,14.45
2022-12-31T10:10:00.139Z,14.49
2022-12-31T10:11:21.122Z,14.49
2022-12-31T10:12:39.756Z,14.55
2022-12-31T10:14:13.209Z,14.53
2022-12-31T10:15:26.157Z,14.55
2022-12-31T10:16:58.128Z,14.65
2022-12-31T10:18:18.216Z,14.68
2022-12-31T10:19:41.483Z,14.65
2022-12-31T10:21:03.134Z,14.70
2022-12-31T10:22:31.956Z,14.72
2022-12-31T10:24:00.253Z,14.76
2022-12-31T10:25:37.917Z,14.85
2022-12-31T10:27:03.992Z,14.99
2022-12-31T10:28:11.596Z,14.97
2022-12-31T10:29:40.373Z,14.99
2022-12-31T10:30:54.221Z,14.86
2022-12-31T10:32:14.188Z,14.87
2022-12-31T10:33:23.277Z,14.87
2022-12-31T10:34:40.349Z,14.97
2022-12-31T10:36:03.445Z,14.94
2022-12-31T10:37:16.769Z,14.91
2022-12-31T10:38:34.079Z,15.02
2022-12-31T10:39:52.231Z,15.02
2022-12-31T10:41:31.220Z,14.91
2022-12-31T10:43:06.565Z,14.93
2022-12-31T10:44:33.947Z,15.02
2022-12-31T10:45:38.034Z,15.05
2022-12-31T10:46:48.293Z,14.90
2022-12-31T10:48:42.788Z,14.91
2022-12-31T10:49:53.097Z,15.04
2022-12-31T10:51:30.444Z,15.10
2022-12-31T10:53:06.920Z,15.25
2022-12-31T10:54:36.060Z,15.37
2022-12-31T10:56:16.161Z,15.51
2022-12-31T10:57:32.574Z,15.49
2022-12-31T10:59:04.610Z,15.39
2022-12-31T11:00:10.558Z,15.33
2022-12-31T11:01:30.493Z,15.33
2022-12-31T11:02:40.856Z,15.37
2022-12-31T11:04:00.546Z,15.43
2022-12-31T11:05:24.303Z,15.48
2022-12-31T11:06:28.717Z,15.44
2022-12-31T11:07:55.783Z,15.29
2022-12-31T11:09:15.792Z,15.34
2022-12-31T11:10:32.335Z,15.47
2022-12-31T11:11:56.437Z,15.51
2022-12-31T11:13:18.860Z,15.49
2022-12-31T11:14:42.031Z,15.55
2022-12-31T11:16:03.367Z,15.46
2022-12-31T11:17:16.129Z,15.47
2022-12-31T11:18:30.376Z,15.51
2022-12-31T11:19:59.594Z,15.55
2022-12-31T11:21:17.105Z,15.56
2022-12-31T11:22:47.384Z,15.52
2022-12-31T11:24:13.504Z,15.54
2022-12-31T11:25:23.164Z,15.45
2022-12-31T11:27:06.250Z,15.40
2022-12-31T11:28:26.562Z,15.49
2022-12-31T11:29:50.101Z,15.46
2022-12-31T11:31:01.612Z,15.57
2022-12-31T11:32:17.980Z,15.60
2022-12-31T11:33:38.132Z,15.40
2022-12-31T11:35:04.826Z,15.40
2022-12-31T11:36:25.711Z,15.42
2022-12-31T11:37:48.267Z,15.44
2022-12-31T11:39:10.746Z,15.54
2022-12-31T11:40:19.985Z,15.53
2022-12-31T11:41:30.989Z,15.50
2022-12-31T11:42:57.480Z,15.44
2022-12-31T11:44:36.359Z,15.55
2022-12-31T11:46:16.602Z,15.46
2022-12-31T11:48:29.209Z,15.47
2022-12-31T11:49:42.865Z,15.48
2022-12-31T11:51:12.582Z,15.52
2022-12-31T11:52:43.753Z,15.55
2022-12-31T11:53:48.011Z,15.45
2022-12-31T11:54:58.724Z,15.54
2022-12-31T11:56:18.499Z,15.59
2022-12-31T11:57:36.717Z,15.60
2022-12-31T11:58:42.043Z,15.51
2022-12-31T11:59:43.760Z,15.57
2022-12-31T12:01:11.845Z,15.67
2022-12-31T12:02:34.317Z,15.81
2022-12-31T12:03:42.457Z,15.79
2022-12-31T12:04:48.512Z,15.75
2022-12-31T12:05:50.865Z,15.80
2022-12-31T12:06:53.260Z,15.84
2022-12-31T12:07:55.150Z,15.91
2022-12-31T12:09:06.262Z,15.92
2022-12-31T12:10:21.154Z,15.87
2022-12-31T12:11:27.045Z,15.87
2022-12-31T12:12:39.513Z,15.93
2022-12-31T12:13:41.004Z,16.01
2022-12-31T12:14:44.642Z,16.06
2022-12-31T12:15:51.092Z,16.01
2022-12-31T12:17:00.723Z,15.95
2022-12-31T12:18:13.942Z,16.02
2022-12-31T12:19:18.132Z,16.05
2022-12-31T12:20:28.031Z,16.06
2022-12-31T12:21:29.973Z,16.04
2022-12-31T12:22:31.839Z,16.00
2022-12-31T12:23:33.547Z,16.14
2022-12-31T12:24:34.946Z,16.18
2022-12-31T12:25:40.736Z,16.22
2022-12-31T12:26:44.454Z,16.18
2022-12-31T12:27:46.401Z,16.08
2022-12-31T12:28:47.874Z,16.13
2022-12-31T12:29:49.712Z,16.16
2022-12-31T12:30:58.678Z,16.15
2022-12-31T12:32:00.138Z,16.12
2022-12-31T12:33:04.823Z,16.20
2022-12-31T12:34:06.920Z,16.26
2022-12-31T12:35:16.934Z,16.30
2022-12-31T12:36:20.174Z,16.33
2022-12-31T12:37:24.307Z,16.43
2022-12-31T12:38:25.781Z,16.50
2022-12-31T12:39:30.141Z,16.57
2022-12-31T12:40:34.463Z,16.58
2022-12-31T12:41:36.073Z,16.67
2022-12-31T12:42:47.356Z,16.68
2022-12-31T12:43:48.926Z,16.57
2022-12-31T12:45:01.499Z,16.45
2022-12-31T12:46:18.257Z,16.37
2022-12-31T12:47:19.732Z,16.46
2022-12-31T12:48:41.958Z,16.54
2022-12-31T12:49:49.655Z,16.56
2022-12-31T12:50:51.582Z,16.63
2022-12-31T12:52:26.559Z,16.69
2022-12-31T12:54:03.261Z,16.68
2022-12-31T12:55:07.818Z,16.73
2022-12-31T12:56:37.207Z,16.84
2022-12-31T12:57:47.661Z,16.93
2022-12-31T12:59:19.606Z,16.97
2022-12-31T13:00:30.044Z,16.97
2022-12-31T13:01:57.914Z,16.99
2022-12-31T13:03:37.478Z,17.01
2022-12-31T13:04:46.225Z,17.03
2022-12-31T13:06:06.459Z,17.09
2022-12-31T13:07:20.124Z,17.07
2022-12-31T13:08:30.317Z,17.11
2022-12-31T13:10:09.975Z,17.20
2022-12-31T13:11:40.326Z,17.18
2022-12-31T13:14:46.448Z,17.26
2022-12-31T13:16:06.293Z,17.27
2022-12-31T13:17:48.327Z,17.16
2022-12-31T13:19:19.697Z,17.20
2022-12-31T13:20:38.467Z,17.26
2022-12-31T13:22:18.603Z,17.22
2022-12-31T13:23:39.297Z,17.25
2022-12-31T13:24:56.744Z,17.34
2022-12-31T13:26:08.958Z,17.13
2022-12-31T13:27:30.274Z,17.09
2022-12-31T13:28:33.482Z,17.18
2022-12-31T13:29:35.911Z,17.17
2022-12-31T13:30:43.314Z,17.21
2022-12-31T13:31:47.901Z,17.25
2022-12-31T13:33:05.693Z,17.29
2022-12-31T13:34:21.199Z,17.31
2022-12-31T13:35:26.407Z,17.30
2022-12-31T13:36:32.988Z,17.18
2022-12-31T13:37:40.325Z,17.08
2022-12-31T13:38:59.305Z,17.07
2022-12-31T13:40:19.608Z,17.05
2022-12-31T13:41:35.790Z,17.00
2022-12-31T13:42:48.761Z,17.11
2022-12-31T13:44:02.316Z,17.10
2022-12-31T13:45:11.547Z,17.09
2022-12-31T13:46:34.459Z,17.08
2022-12-31T13:47:44.555Z,17.11
2022-12-31T13:48:59.774Z,17.15
2022-12-31T13:50:15.117Z,17.11
2022-12-31T13:51:27.484Z,17.11
2022-12-31T13:52:41.214Z,17.14
2022-12-31T13:54:03.633Z,16.98
2022-12-31T13:55:29.861Z,16.95
2022-12-31T13:56:37.221Z,16.94
2022-12-31T13:57:44.828Z,16.88
2022-12-31T13:58:54.713Z,16.86
2022-12-31T14:00:01.685Z,16.89
2022-12-31T14:01:16.449Z,16.91
2022-12-31T14:02:40.680Z,16.95
2022-12-31T14:04:18.636Z,16.87
2022-12-31T14:05:31.313Z,16.89
2022-12-31T14:06:49.487Z,16.93
2022-12-31T14:07:54.334Z,16.93
2022-12-31T14:08:56.111Z,16.89
2022-12-31T14:09:58.498Z,16.84
2022-12-31T14:11:21.613Z,16.88
2022-12-31T14:12:32.545Z,16.86
2022-12-31T14:13:51.994Z,16.91
2022-12-31T14:15:08.608Z,16.85
2022-12-31T14:16:55.440Z,16.84
2022-12-31T14:18:05.303Z,16.84
2022-12-31T14:19:13.651Z,16.86
2022-12-31T14:20:21.095Z,16.86
2022-12-31T14:21:49.284Z,16.84
2022-12-31T14:23:09.355Z,16.83
2022-12-31T14:24:18.826Z,16.82
2022-12-31T14:25:34.420Z,16.83
2022-12-31T14:26:41.789Z,16.80
2022-12-31T14:27:45.186Z,16.79
2022-12-31T14:29:12.129Z,16.76
2022-12-31T14:30:17.814Z,16.63
2022-12-31T14:31:43.975Z,16.60
2022-12-31T14:33:03.006Z,16.56
2022-12-31T14:34:20.869Z,16.53
2022-12-31T14:35:40.484Z,16.61
2022-12-31T14:37:05.794Z,16.63
2022-12-31T14:38:32.220Z,16.69
2022-12-31T14:39:49.588Z,16.66
2022-12-31T14:41:09.531Z,16.65
2022-12-31T14:42:46.085Z,16.62
2022-12-31T14:44:18.617Z,16.63
2022-12-31T14:45:38.757Z,16.63
2022-12-31T14:47:11.324Z,16.58
2022-12-31T14:48:31.012Z,16.59
2022-12-31T14:49:57.373Z,16.59
2022-12-31T14:51:03.167Z,16.58
2022-12-31T14:52:09.532Z,16.49
2022-12-31T14:53:28.227Z,16.47
2022-12-31T14:54:36.327Z,16.45
2022-12-31T14:55:40.937Z,16.40
2022-12-31T14:56:44.934Z,16.40
2022-12-31T14:58:25.786Z,16.35
2022-12-31T14:59:32.228Z,16.30
2022-12-31T15:00:38.940Z,16.27
2022-12-31T15:01:45.465Z,16.22
2022-12-31T15:03:13.285Z,16.24
2022-12-31T15:04:15.110Z,16.22
2022-12-31T15:05:21.337Z,16.23
2022-12-31T15:06:22.732Z,16.20
2022-12-31T15:07:40.858Z,16.15
2022-12-31T15:09:08.600Z,16.02